sensor_id;sensor_type;location;lat;lon;timestamp;P1;durP1;ratioP1;P2;durP2;ratioP2
63120;SDS011;54478;48.684;20.114;2023-05-07T00:00:12;8.75;;;5.22;;
63120;SDS011;54478;48.684;20.114;2023-05-07T00:02:43;7.88;;;5.07;;
63120;SDS011;54478;48.684;20.114;2023-05-07T00:05:12;6.55;;;4.82;;
63120;SDS011;54478;48.684;20.114;2023-05-07T00:07:40;7.50;;;4.72;;
63120;SDS011;54478;48.684;20.114;2023-05-07T00:10:09;7.75;;;4.80;;
63120;SDS011;54478;48.684;20.114;2023-05-07T00:12:40;10.43;;;5.25;;
63120;SDS011;54478;48.684;20.114;2023-05-07T00:15:09;7.80;;;4.93;;
63120;SDS011;54478;48.684;20.114;2023-05-07T00:17:37;7.93;;;5.38;;
63120;SDS011;54478;48.684;20.114;2023-05-07T00:20:06;8.35;;;5.07;;
63120;SDS011;54478;48.684;20.114;2023-05-07T00:22:35;8.38;;;5.10;;
63120;SDS011;54478;48.684;20.114;2023-05-07T00:25:03;10.68;;;5.95;;
63120;SDS011;54478;48.684;20.114;2023-05-07T00:27:30;9.40;;;5.80;;
63120;SDS011;54478;48.684;20.114;2023-05-07T00:29:58;9.40;;;4.65;;
63120;SDS011;54478;48.684;20.114;2023-05-07T00:32:26;10.88;;;4.78;;
63120;SDS011;54478;48.684;20.114;2023-05-07T00:34:55;11.65;;;5.15;;
63120;SDS011;54478;48.684;20.114;2023-05-07T00:37:23;8.40;;;5.38;;
63120;SDS011;54478;48.684;20.114;2023-05-07T00:39:52;7.97;;;5.30;;
63120;SDS011;54478;48.684;20.114;2023-05-07T00:42:20;9.35;;;5.00;;
63120;SDS011;54478;48.684;20.114;2023-05-07T00:44:48;7.18;;;4.53;;
63120;SDS011;54478;48.684;20.114;2023-05-07T00:47:17;7.85;;;5.00;;
63120;SDS011;54478;48.684;20.114;2023-05-07T00:49:45;8.82;;;5.07;;
63120;SDS011;54478;48.684;20.114;2023-05-07T00:52:14;9.32;;;5.47;;
63120;SDS011;54478;48.684;20.114;2023-05-07T00:54:44;11.38;;;5.75;;
63120;SDS011;54478;48.684;20.114;2023-05-07T00:57:13;10.50;;;5.80;;
63120;SDS011;54478;48.684;20.114;2023-05-07T00:59:42;7.72;;;4.93;;
63120;SDS011;54478;48.684;20.114;2023-05-07T01:02:11;8.38;;;5.70;;
63120;SDS011;54478;48.684;20.114;2023-05-07T01:04:39;9.30;;;5.50;;
63120;SDS011;54478;48.684;20.114;2023-05-07T01:07:08;12.65;;;6.15;;
63120;SDS011;54478;48.684;20.114;2023-05-07T01:09:36;8.80;;;5.90;;
63120;SDS011;54478;48.684;20.114;2023-05-07T01:12:05;12.32;;;7.47;;
63120;SDS011;54478;48.684;20.114;2023-05-07T01:14:35;11.65;;;6.78;;
63120;SDS011;54478;48.684;20.114;2023-05-07T01:17:03;9.90;;;5.97;;
63120;SDS011;54478;48.684;20.114;2023-05-07T01:19:32;12.35;;;5.85;;
63120;SDS011;54478;48.684;20.114;2023-05-07T01:22:02;11.23;;;6.22;;
63120;SDS011;54478;48.684;20.114;2023-05-07T01:24:32;9.27;;;5.65;;
63120;SDS011;54478;48.684;20.114;2023-05-07T01:26:58;9.50;;;5.97;;
63120;SDS011;54478;48.684;20.114;2023-05-07T01:29:27;12.32;;;5.43;;
63120;SDS011;54478;48.684;20.114;2023-05-07T01:32:00;10.15;;;6.00;;
63120;SDS011;54478;48.684;20.114;2023-05-07T01:34:30;9.85;;;5.55;;
63120;SDS011;54478;48.684;20.114;2023-05-07T01:37:00;8.15;;;5.07;;
63120;SDS011;54478;48.684;20.114;2023-05-07T01:39:29;9.57;;;5.85;;
63120;SDS011;54478;48.684;20.114;2023-05-07T01:41:58;10.95;;;5.43;;
63120;SDS011;54478;48.684;20.114;2023-05-07T01:44:27;8.52;;;5.57;;
63120;SDS011;54478;48.684;20.114;2023-05-07T01:46:57;10.00;;;5.30;;
63120;SDS011;54478;48.684;20.114;2023-05-07T01:49:25;8.55;;;5.03;;
63120;SDS011;54478;48.684;20.114;2023-05-07T01:51:54;8.23;;;4.90;;
63120;SDS011;54478;48.684;20.114;2023-05-07T01:54:27;8.55;;;4.68;;
63120;SDS011;54478;48.684;20.114;2023-05-07T01:56:52;7.03;;;4.68;;
63120;SDS011;54478;48.684;20.114;2023-05-07T01:59:21;8.52;;;5.38;;
63120;SDS011;54478;48.684;20.114;2023-05-07T02:01:49;6.45;;;4.25;;
63120;SDS011;54478;48.684;20.114;2023-05-07T02:04:18;8.80;;;5.45;;
63120;SDS011;54478;48.684;20.114;2023-05-07T02:06:46;5.85;;;4.45;;
63120;SDS011;54478;48.684;20.114;2023-05-07T02:09:15;9.68;;;4.43;;
63120;SDS011;54478;48.684;20.114;2023-05-07T02:11:44;9.25;;;4.93;;
63120;SDS011;54478;48.684;20.114;2023-05-07T02:14:12;8.40;;;5.68;;
63120;SDS011;54478;48.684;20.114;2023-05-07T02:16:41;7.85;;;4.80;;
63120;SDS011;54478;48.684;20.114;2023-05-07T02:19:09;9.38;;;5.40;;
63120;SDS011;54478;48.684;20.114;2023-05-07T02:21:37;7.43;;;5.00;;
63120;SDS011;54478;48.684;20.114;2023-05-07T02:24:06;9.07;;;5.35;;
63120;SDS011;54478;48.684;20.114;2023-05-07T02:26:34;8.45;;;5.38;;
63120;SDS011;54478;48.684;20.114;2023-05-07T02:29:03;7.13;;;5.28;;
63120;SDS011;54478;48.684;20.114;2023-05-07T02:31:31;7.88;;;4.88;;
63120;SDS011;54478;48.684;20.114;2023-05-07T02:34:01;9.48;;;5.70;;
63120;SDS011;54478;48.684;20.114;2023-05-07T02:36:30;8.00;;;5.22;;
63120;SDS011;54478;48.684;20.114;2023-05-07T02:38:58;8.38;;;5.25;;
63120;SDS011;54478;48.684;20.114;2023-05-07T02:41:27;10.43;;;5.78;;
63120;SDS011;54478;48.684;20.114;2023-05-07T02:43:56;7.55;;;5.18;;
63120;SDS011;54478;48.684;20.114;2023-05-07T02:46:24;11.48;;;7.45;;
63120;SDS011;54478;48.684;20.114;2023-05-07T02:48:52;18.85;;;13.20;;
63120;SDS011;54478;48.684;20.114;2023-05-07T02:51:22;9.23;;;6.18;;
63120;SDS011;54478;48.684;20.114;2023-05-07T02:53:50;10.82;;;6.13;;
63120;SDS011;54478;48.684;20.114;2023-05-07T02:56:19;7.05;;;5.20;;
63120;SDS011;54478;48.684;20.114;2023-05-07T02:58:47;6.78;;;4.57;;
63120;SDS011;54478;48.684;20.114;2023-05-07T03:01:16;8.35;;;4.82;;
63120;SDS011;54478;48.684;20.114;2023-05-07T03:03:44;7.78;;;5.05;;
63120;SDS011;54478;48.684;20.114;2023-05-07T03:06:12;11.25;;;4.20;;
63120;SDS011;54478;48.684;20.114;2023-05-07T03:08:41;9.13;;;4.85;;
63120;SDS011;54478;48.684;20.114;2023-05-07T03:11:09;7.43;;;5.03;;
63120;SDS011;54478;48.684;20.114;2023-05-07T03:13:38;7.60;;;5.05;;
63120;SDS011;54478;48.684;20.114;2023-05-07T03:16:06;10.85;;;5.05;;
63120;SDS011;54478;48.684;20.114;2023-05-07T03:18:34;8.65;;;4.78;;
63120;SDS011;54478;48.684;20.114;2023-05-07T03:21:03;9.15;;;4.85;;
63120;SDS011;54478;48.684;20.114;2023-05-07T03:23:31;11.13;;;4.82;;
63120;SDS011;54478;48.684;20.114;2023-05-07T03:26:00;10.35;;;4.93;;
63120;SDS011;54478;48.684;20.114;2023-05-07T03:28:25;8.95;;;4.30;;
63120;SDS011;54478;48.684;20.114;2023-05-07T03:30:53;7.50;;;4.95;;
63120;SDS011;54478;48.684;20.114;2023-05-07T03:33:21;8.18;;;5.03;;
63120;SDS011;54478;48.684;20.114;2023-05-07T03:35:50;9.98;;;4.70;;
63120;SDS011;54478;48.684;20.114;2023-05-07T03:38:18;6.70;;;4.32;;
63120;SDS011;54478;48.684;20.114;2023-05-07T03:40:47;7.43;;;4.68;;
63120;SDS011;54478;48.684;20.114;2023-05-07T03:43:15;10.15;;;4.68;;
63120;SDS011;54478;48.684;20.114;2023-05-07T03:45:43;6.65;;;4.22;;
63120;SDS011;54478;48.684;20.114;2023-05-07T03:48:11;7.68;;;4.88;;
63120;SDS011;54478;48.684;20.114;2023-05-07T03:50:39;6.15;;;4.40;;
63120;SDS011;54478;48.684;20.114;2023-05-07T03:53:08;9.20;;;4.65;;
63120;SDS011;54478;48.684;20.114;2023-05-07T03:55:36;5.80;;;4.13;;
63120;SDS011;54478;48.684;20.114;2023-05-07T03:58:04;7.38;;;4.30;;
63120;SDS011;54478;48.684;20.114;2023-05-07T04:00:33;6.63;;;4.13;;
63120;SDS011;54478;48.684;20.114;2023-05-07T04:03:06;6.10;;;4.13;;
63120;SDS011;54478;48.684;20.114;2023-05-07T04:05:34;6.55;;;4.45;;
63120;SDS011;54478;48.684;20.114;2023-05-07T04:08:03;6.80;;;4.68;;
63120;SDS011;54478;48.684;20.114;2023-05-07T04:10:31;6.47;;;4.60;;
63120;SDS011;54478;48.684;20.114;2023-05-07T04:12:59;7.22;;;4.53;;
63120;SDS011;54478;48.684;20.114;2023-05-07T04:15:28;6.22;;;4.18;;
63120;SDS011;54478;48.684;20.114;2023-05-07T04:17:56;7.78;;;4.15;;
63120;SDS011;54478;48.684;20.114;2023-05-07T04:20:24;6.85;;;3.90;;
63120;SDS011;54478;48.684;20.114;2023-05-07T04:22:52;6.60;;;3.97;;
63120;SDS011;54478;48.684;20.114;2023-05-07T04:25:21;6.53;;;4.32;;
63120;SDS011;54478;48.684;20.114;2023-05-07T04:27:46;6.40;;;4.07;;
63120;SDS011;54478;48.684;20.114;2023-05-07T04:30:16;5.60;;;4.22;;
63120;SDS011;54478;48.684;20.114;2023-05-07T04:32:45;6.75;;;4.45;;
63120;SDS011;54478;48.684;20.114;2023-05-07T04:35:13;5.00;;;3.45;;
63120;SDS011;54478;48.684;20.114;2023-05-07T04:37:42;7.18;;;4.57;;
63120;SDS011;54478;48.684;20.114;2023-05-07T04:40:10;7.28;;;4.47;;
63120;SDS011;54478;48.684;20.114;2023-05-07T04:42:39;7.97;;;4.18;;
63120;SDS011;54478;48.684;20.114;2023-05-07T04:45:07;9.20;;;5.38;;
63120;SDS011;54478;48.684;20.114;2023-05-07T04:47:36;6.75;;;4.20;;
63120;SDS011;54478;48.684;20.114;2023-05-07T04:50:06;7.43;;;4.75;;
63120;SDS011;54478;48.684;20.114;2023-05-07T04:52:35;7.22;;;4.10;;
63120;SDS011;54478;48.684;20.114;2023-05-07T04:55:04;6.78;;;3.72;;
63120;SDS011;54478;48.684;20.114;2023-05-07T04:57:32;7.25;;;4.53;;
63120;SDS011;54478;48.684;20.114;2023-05-07T05:00:00;7.25;;;3.85;;
63120;SDS011;54478;48.684;20.114;2023-05-07T05:02:29;5.45;;;3.78;;
63120;SDS011;54478;48.684;20.114;2023-05-07T05:04:57;4.93;;;3.65;;
63120;SDS011;54478;48.684;20.114;2023-05-07T05:07:27;10.60;;;4.07;;
63120;SDS011;54478;48.684;20.114;2023-05-07T05:09:55;4.70;;;3.35;;
63120;SDS011;54478;48.684;20.114;2023-05-07T05:12:25;9.57;;;4.18;;
63120;SDS011;54478;48.684;20.114;2023-05-07T05:14:54;5.35;;;3.08;;
63120;SDS011;54478;48.684;20.114;2023-05-07T05:17:22;6.15;;;3.50;;
63120;SDS011;54478;48.684;20.114;2023-05-07T05:19:50;5.05;;;3.63;;
63120;SDS011;54478;48.684;20.114;2023-05-07T05:22:18;5.63;;;3.45;;
63120;SDS011;54478;48.684;20.114;2023-05-07T05:24:47;6.25;;;3.20;;
63120;SDS011;54478;48.684;20.114;2023-05-07T05:27:12;6.05;;;3.70;;
63120;SDS011;54478;48.684;20.114;2023-05-07T05:29:41;7.57;;;3.88;;
63120;SDS011;54478;48.684;20.114;2023-05-07T05:32:09;6.70;;;3.92;;
63120;SDS011;54478;48.684;20.114;2023-05-07T05:34:38;5.45;;;3.80;;
63120;SDS011;54478;48.684;20.114;2023-05-07T05:37:06;15.43;;;4.40;;
63120;SDS011;54478;48.684;20.114;2023-05-07T05:39:34;6.40;;;3.95;;
63120;SDS011;54478;48.684;20.114;2023-05-07T05:42:04;11.70;;;5.25;;
63120;SDS011;54478;48.684;20.114;2023-05-07T05:44:32;6.85;;;4.68;;
63120;SDS011;54478;48.684;20.114;2023-05-07T05:47:01;6.72;;;5.22;;
63120;SDS011;54478;48.684;20.114;2023-05-07T05:49:29;9.57;;;5.05;;
63120;SDS011;54478;48.684;20.114;2023-05-07T05:51:57;8.30;;;5.60;;
63120;SDS011;54478;48.684;20.114;2023-05-07T05:54:25;9.60;;;6.22;;
63120;SDS011;54478;48.684;20.114;2023-05-07T05:56:53;11.30;;;6.82;;
63120;SDS011;54478;48.684;20.114;2023-05-07T05:59:22;12.68;;;6.45;;
63120;SDS011;54478;48.684;20.114;2023-05-07T06:01:50;15.95;;;6.80;;
63120;SDS011;54478;48.684;20.114;2023-05-07T06:04:19;13.00;;;7.03;;
63120;SDS011;54478;48.684;20.114;2023-05-07T06:06:47;11.48;;;7.13;;
63120;SDS011;54478;48.684;20.114;2023-05-07T06:09:15;11.68;;;6.72;;
63120;SDS011;54478;48.684;20.114;2023-05-07T06:11:43;10.02;;;6.45;;
63120;SDS011;54478;48.684;20.114;2023-05-07T06:14:12;11.40;;;6.18;;
63120;SDS011;54478;48.684;20.114;2023-05-07T06:16:40;10.75;;;6.40;;
63120;SDS011;54478;48.684;20.114;2023-05-07T06:19:09;11.60;;;7.20;;
63120;SDS011;54478;48.684;20.114;2023-05-07T06:21:38;13.52;;;7.28;;
63120;SDS011;54478;48.684;20.114;2023-05-07T06:24:07;11.70;;;6.43;;
63120;SDS011;54478;48.684;20.114;2023-05-07T06:26:36;9.07;;;5.90;;
63120;SDS011;54478;48.684;20.114;2023-05-07T06:29:04;12.85;;;5.05;;
63120;SDS011;54478;48.684;20.114;2023-05-07T06:31:32;9.80;;;6.00;;
63120;SDS011;54478;48.684;20.114;2023-05-07T06:34:01;7.82;;;5.47;;
63120;SDS011;54478;48.684;20.114;2023-05-07T06:36:29;9.45;;;5.70;;
63120;SDS011;54478;48.684;20.114;2023-05-07T06:38:58;7.47;;;4.60;;
63120;SDS011;54478;48.684;20.114;2023-05-07T06:41:26;11.73;;;5.78;;
63120;SDS011;54478;48.684;20.114;2023-05-07T06:43:54;9.38;;;6.32;;
63120;SDS011;54478;48.684;20.114;2023-05-07T06:46:23;13.80;;;7.55;;
63120;SDS011;54478;48.684;20.114;2023-05-07T06:48:51;14.57;;;8.95;;
63120;SDS011;54478;48.684;20.114;2023-05-07T06:51:20;16.65;;;8.57;;
63120;SDS011;54478;48.684;20.114;2023-05-07T06:53:48;15.68;;;9.20;;
63120;SDS011;54478;48.684;20.114;2023-05-07T06:56:16;16.80;;;9.65;;
63120;SDS011;54478;48.684;20.114;2023-05-07T06:58:45;12.75;;;7.32;;
63120;SDS011;54478;48.684;20.114;2023-05-07T07:01:13;10.20;;;6.57;;
63120;SDS011;54478;48.684;20.114;2023-05-07T07:03:41;10.35;;;6.75;;
63120;SDS011;54478;48.684;20.114;2023-05-07T07:06:09;10.60;;;6.75;;
63120;SDS011;54478;48.684;20.114;2023-05-07T07:08:38;8.32;;;5.68;;
63120;SDS011;54478;48.684;20.114;2023-05-07T07:11:06;10.18;;;6.20;;
63120;SDS011;54478;48.684;20.114;2023-05-07T07:13:35;12.30;;;6.57;;
63120;SDS011;54478;48.684;20.114;2023-05-07T07:16:03;12.70;;;6.93;;
63120;SDS011;54478;48.684;20.114;2023-05-07T07:18:31;12.00;;;6.88;;
63120;SDS011;54478;48.684;20.114;2023-05-07T07:21:00;11.77;;;7.55;;
63120;SDS011;54478;48.684;20.114;2023-05-07T07:23:28;13.63;;;7.10;;
63120;SDS011;54478;48.684;20.114;2023-05-07T07:25:56;13.10;;;6.75;;
63120;SDS011;54478;48.684;20.114;2023-05-07T07:28:21;11.55;;;7.13;;
63120;SDS011;54478;48.684;20.114;2023-05-07T07:30:50;11.93;;;6.18;;
63120;SDS011;54478;48.684;20.114;2023-05-07T07:33:18;7.90;;;5.72;;
63120;SDS011;54478;48.684;20.114;2023-05-07T07:35:47;11.55;;;6.43;;
63120;SDS011;54478;48.684;20.114;2023-05-07T07:38:15;14.25;;;6.25;;
63120;SDS011;54478;48.684;20.114;2023-05-07T07:40:44;9.52;;;6.22;;
63120;SDS011;54478;48.684;20.114;2023-05-07T07:43:12;11.10;;;6.85;;
63120;SDS011;54478;48.684;20.114;2023-05-07T07:45:40;11.40;;;6.68;;
63120;SDS011;54478;48.684;20.114;2023-05-07T07:48:09;12.43;;;7.00;;
63120;SDS011;54478;48.684;20.114;2023-05-07T07:50:36;11.07;;;6.40;;
63120;SDS011;54478;48.684;20.114;2023-05-07T07:53:02;11.32;;;6.75;;
63120;SDS011;54478;48.684;20.114;2023-05-07T07:55:30;11.45;;;6.80;;
63120;SDS011;54478;48.684;20.114;2023-05-07T07:58:00;8.63;;;5.72;;
63120;SDS011;54478;48.684;20.114;2023-05-07T08:00:28;9.95;;;6.25;;
63120;SDS011;54478;48.684;20.114;2023-05-07T08:02:56;8.48;;;6.30;;
63120;SDS011;54478;48.684;20.114;2023-05-07T08:05:24;9.40;;;5.18;;
63120;SDS011;54478;48.684;20.114;2023-05-07T08:07:53;9.43;;;5.10;;
63120;SDS011;54478;48.684;20.114;2023-05-07T08:10:21;8.55;;;5.50;;
63120;SDS011;54478;48.684;20.114;2023-05-07T08:12:50;10.15;;;5.18;;
63120;SDS011;54478;48.684;20.114;2023-05-07T08:15:18;8.02;;;4.88;;
63120;SDS011;54478;48.684;20.114;2023-05-07T08:17:47;9.27;;;5.18;;
63120;SDS011;54478;48.684;20.114;2023-05-07T08:20:15;11.27;;;5.18;;
63120;SDS011;54478;48.684;20.114;2023-05-07T08:22:43;8.02;;;5.47;;
63120;SDS011;54478;48.684;20.114;2023-05-07T08:25:11;10.15;;;4.95;;
63120;SDS011;54478;48.684;20.114;2023-05-07T08:27:37;7.40;;;4.93;;
63120;SDS011;54478;48.684;20.114;2023-05-07T08:30:05;6.78;;;4.85;;
63120;SDS011;54478;48.684;20.114;2023-05-07T08:32:34;8.43;;;4.78;;
63120;SDS011;54478;48.684;20.114;2023-05-07T08:35:02;13.23;;;5.05;;
63120;SDS011;54478;48.684;20.114;2023-05-07T08:37:31;8.55;;;5.07;;
63120;SDS011;54478;48.684;20.114;2023-05-07T08:39:59;10.48;;;4.95;;
63120;SDS011;54478;48.684;20.114;2023-05-07T08:42:28;13.75;;;5.45;;
63120;SDS011;54478;48.684;20.114;2023-05-07T08:44:58;9.75;;;5.25;;
63120;SDS011;54478;48.684;20.114;2023-05-07T08:47:29;11.68;;;5.43;;
63120;SDS011;54478;48.684;20.114;2023-05-07T08:50:03;9.23;;;5.50;;
63120;SDS011;54478;48.684;20.114;2023-05-07T08:52:30;5.90;;;4.90;;
63120;SDS011;54478;48.684;20.114;2023-05-07T08:54:58;11.05;;;5.25;;
63120;SDS011;54478;48.684;20.114;2023-05-07T08:57:27;8.20;;;5.07;;
63120;SDS011;54478;48.684;20.114;2023-05-07T08:59:55;6.65;;;4.50;;
63120;SDS011;54478;48.684;20.114;2023-05-07T09:02:23;8.43;;;4.68;;
63120;SDS011;54478;48.684;20.114;2023-05-07T09:04:52;7.60;;;4.72;;
63120;SDS011;54478;48.684;20.114;2023-05-07T09:07:20;8.20;;;6.18;;
63120;SDS011;54478;48.684;20.114;2023-05-07T09:09:50;8.50;;;4.70;;
63120;SDS011;54478;48.684;20.114;2023-05-07T09:12:18;6.82;;;5.07;;
63120;SDS011;54478;48.684;20.114;2023-05-07T09:14:47;6.70;;;4.13;;
63120;SDS011;54478;48.684;20.114;2023-05-07T09:17:16;6.90;;;4.65;;
63120;SDS011;54478;48.684;20.114;2023-05-07T09:19:45;7.15;;;4.60;;
63120;SDS011;54478;48.684;20.114;2023-05-07T09:22:13;7.78;;;4.53;;
63120;SDS011;54478;48.684;20.114;2023-05-07T09:24:46;9.13;;;4.72;;
63120;SDS011;54478;48.684;20.114;2023-05-07T09:27:16;6.10;;;4.15;;
63120;SDS011;54478;48.684;20.114;2023-05-07T09:29:45;7.97;;;4.45;;
63120;SDS011;54478;48.684;20.114;2023-05-07T09:32:14;8.00;;;4.32;;
63120;SDS011;54478;48.684;20.114;2023-05-07T09:34:43;5.63;;;3.97;;
63120;SDS011;54478;48.684;20.114;2023-05-07T09:37:12;5.38;;;3.92;;
63120;SDS011;54478;48.684;20.114;2023-05-07T09:39:42;4.97;;;3.60;;
63120;SDS011;54478;48.684;20.114;2023-05-07T09:42:12;6.10;;;4.13;;
63120;SDS011;54478;48.684;20.114;2023-05-07T09:44:43;6.80;;;4.50;;
63120;SDS011;54478;48.684;20.114;2023-05-07T09:47:11;7.55;;;4.45;;
63120;SDS011;54478;48.684;20.114;2023-05-07T09:49:47;5.03;;;3.80;;
63120;SDS011;54478;48.684;20.114;2023-05-07T09:52:14;6.82;;;3.83;;
63120;SDS011;54478;48.684;20.114;2023-05-07T09:54:43;5.30;;;3.85;;
63120;SDS011;54478;48.684;20.114;2023-05-07T09:57:12;5.53;;;3.72;;
63120;SDS011;54478;48.684;20.114;2023-05-07T09:59:43;8.40;;;4.20;;
63120;SDS011;54478;48.684;20.114;2023-05-07T10:02:12;5.30;;;3.63;;
63120;SDS011;54478;48.684;20.114;2023-05-07T10:04:42;6.03;;;3.50;;
63120;SDS011;54478;48.684;20.114;2023-05-07T10:07:11;6.53;;;3.72;;
63120;SDS011;54478;48.684;20.114;2023-05-07T10:09:39;6.55;;;3.75;;
63120;SDS011;54478;48.684;20.114;2023-05-07T10:12:10;7.50;;;3.60;;
63120;SDS011;54478;48.684;20.114;2023-05-07T10:14:38;4.72;;;3.60;;
63120;SDS011;54478;48.684;20.114;2023-05-07T10:17:07;5.90;;;3.35;;
63120;SDS011;54478;48.684;20.114;2023-05-07T10:19:36;5.25;;;3.67;;
63120;SDS011;54478;48.684;20.114;2023-05-07T10:22:06;4.00;;;3.20;;
63120;SDS011;54478;48.684;20.114;2023-05-07T10:24:36;5.53;;;3.33;;
63120;SDS011;54478;48.684;20.114;2023-05-07T10:27:03;5.63;;;3.58;;
63120;SDS011;54478;48.684;20.114;2023-05-07T10:29:34;8.35;;;3.30;;
63120;SDS011;54478;48.684;20.114;2023-05-07T10:35:04;5.28;;;3.40;;
63120;SDS011;54478;48.684;20.114;2023-05-07T10:37:36;4.60;;;3.13;;
63120;SDS011;54478;48.684;20.114;2023-05-07T10:40:05;5.25;;;3.20;;
63120;SDS011;54478;48.684;20.114;2023-05-07T10:42:35;5.05;;;3.92;;
63120;SDS011;54478;48.684;20.114;2023-05-07T10:45:15;4.78;;;2.72;;
63120;SDS011;54478;48.684;20.114;2023-05-07T10:50:38;4.72;;;3.10;;
63120;SDS011;54478;48.684;20.114;2023-05-07T10:55:46;4.32;;;2.83;;
63120;SDS011;54478;48.684;20.114;2023-05-07T10:58:25;4.57;;;2.97;;
63120;SDS011;54478;48.684;20.114;2023-05-07T11:03:27;7.05;;;3.10;;
63120;SDS011;54478;48.684;20.114;2023-05-07T11:06:12;6.93;;;3.35;;
63120;SDS011;54478;48.684;20.114;2023-05-07T11:08:57;5.25;;;2.92;;
63120;SDS011;54478;48.684;20.114;2023-05-07T11:14:10;4.10;;;2.58;;
63120;SDS011;54478;48.684;20.114;2023-05-07T11:16:38;3.70;;;2.40;;
63120;SDS011;54478;48.684;20.114;2023-05-07T11:19:09;4.65;;;2.38;;
63120;SDS011;54478;48.684;20.114;2023-05-07T11:21:38;4.40;;;2.17;;
63120;SDS011;54478;48.684;20.114;2023-05-07T11:24:09;3.92;;;2.83;;
63120;SDS011;54478;48.684;20.114;2023-05-07T11:26:50;3.35;;;2.55;;
63120;SDS011;54478;48.684;20.114;2023-05-07T11:29:17;2.88;;;1.92;;
63120;SDS011;54478;48.684;20.114;2023-05-07T11:31:50;3.05;;;2.47;;
63120;SDS011;54478;48.684;20.114;2023-05-07T11:34:20;4.38;;;2.22;;
63120;SDS011;54478;48.684;20.114;2023-05-07T11:36:53;2.35;;;1.98;;
63120;SDS011;54478;48.684;20.114;2023-05-07T11:39:29;3.15;;;1.90;;
63120;SDS011;54478;48.684;20.114;2023-05-07T11:42:00;2.80;;;2.10;;
63120;SDS011;54478;48.684;20.114;2023-05-07T11:44:40;3.95;;;2.00;;
63120;SDS011;54478;48.684;20.114;2023-05-07T11:47:10;2.92;;;1.80;;
63120;SDS011;54478;48.684;20.114;2023-05-07T11:49:37;3.72;;;2.17;;
63120;SDS011;54478;48.684;20.114;2023-05-07T11:52:05;3.70;;;2.15;;
63120;SDS011;54478;48.684;20.114;2023-05-07T11:54:37;3.03;;;1.73;;
63120;SDS011;54478;48.684;20.114;2023-05-07T11:57:05;3.53;;;1.95;;
63120;SDS011;54478;48.684;20.114;2023-05-07T11:59:38;4.22;;;2.13;;
63120;SDS011;54478;48.684;20.114;2023-05-07T12:02:08;3.67;;;2.08;;
63120;SDS011;54478;48.684;20.114;2023-05-07T12:04:37;2.65;;;1.70;;
63120;SDS011;54478;48.684;20.114;2023-05-07T12:07:21;3.63;;;2.42;;
63120;SDS011;54478;48.684;20.114;2023-05-07T12:09:50;2.72;;;2.10;;
63120;SDS011;54478;48.684;20.114;2023-05-07T12:12:18;2.67;;;1.98;;
63120;SDS011;54478;48.684;20.114;2023-05-07T12:14:47;3.38;;;1.85;;
63120;SDS011;54478;48.684;20.114;2023-05-07T12:17:16;3.97;;;2.00;;
63120;SDS011;54478;48.684;20.114;2023-05-07T12:19:45;3.42;;;2.33;;
63120;SDS011;54478;48.684;20.114;2023-05-07T12:22:14;4.22;;;1.90;;
63120;SDS011;54478;48.684;20.114;2023-05-07T12:24:43;2.40;;;1.85;;
63120;SDS011;54478;48.684;20.114;2023-05-07T12:27:21;4.80;;;2.00;;
63120;SDS011;54478;48.684;20.114;2023-05-07T12:29:47;3.67;;;1.80;;
63120;SDS011;54478;48.684;20.114;2023-05-07T12:32:17;2.83;;;2.05;;
63120;SDS011;54478;48.684;20.114;2023-05-07T12:34:46;4.47;;;1.60;;
63120;SDS011;54478;48.684;20.114;2023-05-07T12:37:22;4.60;;;2.95;;
63120;SDS011;54478;48.684;20.114;2023-05-07T12:40:03;4.15;;;2.70;;
63120;SDS011;54478;48.684;20.114;2023-05-07T12:42:37;4.35;;;2.78;;
63120;SDS011;54478;48.684;20.114;2023-05-07T12:45:11;4.30;;;3.22;;
63120;SDS011;54478;48.684;20.114;2023-05-07T12:47:46;4.38;;;3.38;;
63120;SDS011;54478;48.684;20.114;2023-05-07T12:50:13;3.67;;;3.10;;
63120;SDS011;54478;48.684;20.114;2023-05-07T12:52:49;5.40;;;3.58;;
63120;SDS011;54478;48.684;20.114;2023-05-07T12:55:15;8.82;;;8.02;;
63120;SDS011;54478;48.684;20.114;2023-05-07T12:57:47;5.72;;;3.70;;
63120;SDS011;54478;48.684;20.114;2023-05-07T13:00:16;5.90;;;3.95;;
63120;SDS011;54478;48.684;20.114;2023-05-07T13:02:45;6.72;;;4.65;;
63120;SDS011;54478;48.684;20.114;2023-05-07T13:05:13;6.45;;;4.45;;
63120;SDS011;54478;48.684;20.114;2023-05-07T13:07:52;11.25;;;6.47;;
63120;SDS011;54478;48.684;20.114;2023-05-07T13:10:18;5.63;;;4.30;;
63120;SDS011;54478;48.684;20.114;2023-05-07T13:12:46;4.90;;;3.42;;
63120;SDS011;54478;48.684;20.114;2023-05-07T13:15:14;5.97;;;3.63;;
63120;SDS011;54478;48.684;20.114;2023-05-07T13:17:43;5.13;;;3.45;;
63120;SDS011;54478;48.684;20.114;2023-05-07T13:20:12;4.43;;;3.17;;
63120;SDS011;54478;48.684;20.114;2023-05-07T13:22:40;5.32;;;3.28;;
63120;SDS011;54478;48.684;20.114;2023-05-07T13:25:09;6.72;;;3.58;;
63120;SDS011;54478;48.684;20.114;2023-05-07T13:27:34;4.68;;;3.20;;
63120;SDS011;54478;48.684;20.114;2023-05-07T13:30:04;6.50;;;3.33;;
63120;SDS011;54478;48.684;20.114;2023-05-07T13:32:33;7.93;;;4.00;;
63120;SDS011;54478;48.684;20.114;2023-05-07T13:35:02;4.88;;;3.25;;
63120;SDS011;54478;48.684;20.114;2023-05-07T13:37:30;4.68;;;3.88;;
63120;SDS011;54478;48.684;20.114;2023-05-07T13:39:59;5.85;;;4.00;;
63120;SDS011;54478;48.684;20.114;2023-05-07T13:42:27;4.65;;;3.70;;
63120;SDS011;54478;48.684;20.114;2023-05-07T13:44:55;5.38;;;3.88;;
63120;SDS011;54478;48.684;20.114;2023-05-07T13:47:24;6.35;;;4.00;;
63120;SDS011;54478;48.684;20.114;2023-05-07T13:49:53;5.55;;;3.50;;
63120;SDS011;54478;48.684;20.114;2023-05-07T13:52:21;6.68;;;3.90;;
63120;SDS011;54478;48.684;20.114;2023-05-07T13:54:49;4.88;;;3.90;;
63120;SDS011;54478;48.684;20.114;2023-05-07T13:57:19;4.65;;;3.60;;
63120;SDS011;54478;48.684;20.114;2023-05-07T13:59:48;7.65;;;3.90;;
63120;SDS011;54478;48.684;20.114;2023-05-07T14:02:16;4.40;;;3.20;;
63120;SDS011;54478;48.684;20.114;2023-05-07T14:04:42;3.53;;;3.10;;
63120;SDS011;54478;48.684;20.114;2023-05-07T14:07:10;7.72;;;3.40;;
63120;SDS011;54478;48.684;20.114;2023-05-07T14:09:39;4.93;;;3.17;;
63120;SDS011;54478;48.684;20.114;2023-05-07T14:12:08;5.70;;;3.28;;
63120;SDS011;54478;48.684;20.114;2023-05-07T14:14:36;5.70;;;3.25;;
63120;SDS011;54478;48.684;20.114;2023-05-07T14:17:04;4.28;;;2.90;;
63120;SDS011;54478;48.684;20.114;2023-05-07T14:19:33;4.07;;;3.10;;
63120;SDS011;54478;48.684;20.114;2023-05-07T14:22:01;6.45;;;4.78;;
63120;SDS011;54478;48.684;20.114;2023-05-07T14:24:29;6.07;;;3.53;;
63120;SDS011;54478;48.684;20.114;2023-05-07T14:26:55;4.93;;;2.85;;
63120;SDS011;54478;48.684;20.114;2023-05-07T14:29:23;5.30;;;3.13;;
63120;SDS011;54478;48.684;20.114;2023-05-07T14:31:52;6.90;;;3.28;;
63120;SDS011;54478;48.684;20.114;2023-05-07T14:34:20;5.18;;;3.05;;
63120;SDS011;54478;48.684;20.114;2023-05-07T14:36:48;4.30;;;2.92;;
63120;SDS011;54478;48.684;20.114;2023-05-07T14:39:17;4.93;;;2.85;;
63120;SDS011;54478;48.684;20.114;2023-05-07T14:41:45;4.93;;;2.78;;
63120;SDS011;54478;48.684;20.114;2023-05-07T14:44:14;6.88;;;3.35;;
63120;SDS011;54478;48.684;20.114;2023-05-07T14:46:42;26.75;;;8.65;;
63120;SDS011;54478;48.684;20.114;2023-05-07T14:49:10;21.85;;;7.05;;
63120;SDS011;54478;48.684;20.114;2023-05-07T14:51:44;10.23;;;4.20;;
63120;SDS011;54478;48.684;20.114;2023-05-07T14:54:11;7.28;;;3.65;;